sensor_id;sensor_type;location;lat;lon;timestamp;pressure;altitude;pressure_sealevel;temperature;humidity
12195;BME280;27023;42.680;23.132;2022-07-06T00:02:18;92168.31;;;16.60;100.00
12195;BME280;27023;42.680;23.132;2022-07-06T00:04:46;92171.34;;;16.55;100.00
12195;BME280;27023;42.680;23.132;2022-07-06T00:07:13;92174.41;;;16.71;100.00
12195;BME280;27023;42.680;23.132;2022-07-06T00:09:40;92178.22;;;16.81;100.00
12195;BME280;27023;42.680;23.132;2022-07-06T00:12:07;92178.56;;;16.94;100.00
12195;BME280;27023;42.680;23.132;2022-07-06T00:14:35;92179.34;;;16.76;100.00
12195;BME280;27023;42.680;23.132;2022-07-06T00:17:01;92179.34;;;16.66;100.00
12195;BME280;27023;42.680;23.132;2022-07-06T00:19:28;92185.03;;;16.64;100.00
12195;BME280;27023;42.680;23.132;2022-07-06T00:21:56;92182.00;;;16.69;100.00
12195;BME280;27023;42.680;23.132;2022-07-06T00:24:23;92176.69;;;16.76;100.00
12195;BME280;27023;42.680;23.132;2022-07-06T00:26:50;92181.25;;;16.79;100.00
12195;BME280;27023;42.680;23.132;2022-07-06T00:29:16;92178.97;;;16.85;100.00
12195;BME280;27023;42.680;23.132;2022-07-06T00:31:43;92185.03;;;16.86;100.00
12195;BME280;27023;42.680;23.132;2022-07-06T00:34:10;92184.28;;;16.81;100.00
12195;BME280;27023;42.680;23.132;2022-07-06T00:36:37;92189.63;;;16.81;100.00
12195;BME280;27023;42.680;23.132;2022-07-06T00:39:05;92183.91;;;16.79;100.00
12195;BME280;27023;42.680;23.132;2022-07-06T00:41:31;92183.53;;;16.81;100.00
12195;BME280;27023;42.680;23.132;2022-07-06T00:43:58;92185.81;;;16.79;100.00
12195;BME280;27023;42.680;23.132;2022-07-06T00:46:28;92175.53;;;16.77;100.00
12195;BME280;27023;42.680;23.132;2022-07-06T00:48:55;92166.81;;;16.77;100.00
12195;BME280;27023;42.680;23.132;2022-07-06T00:51:25;92156.16;;;16.80;100.00
12195;BME280;27023;42.680;23.132;2022-07-06T00:53:54;92149.69;;;16.81;100.00
12195;BME280;27023;42.680;23.132;2022-07-06T00:56:23;92157.69;;;16.74;100.00
12195;BME280;27023;42.680;23.132;2022-07-06T00:58:50;92141.72;;;16.74;100.00
12195;BME280;27023;42.680;23.132;2022-07-06T01:01:17;92151.97;;;16.79;100.00
12195;BME280;27023;42.680;23.132;2022-07-06T01:03:43;92143.22;;;16.90;100.00
12195;BME280;27023;42.680;23.132;2022-07-06T01:06:10;92147.75;;;17.07;100.00
12195;BME280;27023;42.680;23.132;2022-07-06T01:08:37;92144.69;;;17.26;100.00
12195;BME280;27023;42.680;23.132;2022-07-06T01:11:04;92159.50;;;17.34;100.00
12195;BME280;27023;42.680;23.132;2022-07-06T01:13:33;92159.13;;;17.25;100.00
12195;BME280;27023;42.680;23.132;2022-07-06T01:16:00;92161.47;;;16.95;100.00
12195;BME280;27023;42.680;23.132;2022-07-06T01:18:26;92154.66;;;16.65;100.00
12195;BME280;27023;42.680;23.132;2022-07-06T01:21:06;92151.56;;;16.56;100.00
12195;BME280;27023;42.680;23.132;2022-07-06T01:23:38;92161.06;;;16.50;100.00
12195;BME280;27023;42.680;23.132;2022-07-06T01:26:05;92155.75;;;16.43;100.00
12195;BME280;27023;42.680;23.132;2022-07-06T01:28:32;92153.09;;;16.50;100.00
12195;BME280;27023;42.680;23.132;2022-07-06T01:30:58;92161.06;;;16.50;100.00
12195;BME280;27023;42.680;23.132;2022-07-06T01:33:25;92162.19;;;16.24;100.00
12195;BME280;27023;42.680;23.132;2022-07-06T01:35:53;92162.16;;;16.20;100.00
12195;BME280;27023;42.680;23.132;2022-07-06T01:38:21;92154.56;;;16.19;100.00
12195;BME280;27023;42.680;23.132;2022-07-06T01:40:48;92153.84;;;16.43;100.00
12195;BME280;27023;42.680;23.132;2022-07-06T01:43:15;92150.06;;;16.55;100.00
12195;BME280;27023;42.680;23.132;2022-07-06T01:45:41;92157.63;;;16.25;100.00
12195;BME280;27023;42.680;23.132;2022-07-06T01:48:08;92147.34;;;16.23;100.00
12195;BME280;27023;42.680;23.132;2022-07-06T01:50:35;92151.53;;;16.28;100.00
12195;BME280;27023;42.680;23.132;2022-07-06T01:53:02;92162.94;;;16.21;100.00
12195;BME280;27023;42.680;23.132;2022-07-06T01:55:30;92155.34;;;16.19;100.00
12195;BME280;27023;42.680;23.132;2022-07-06T01:57:56;92148.50;;;16.15;100.00
12195;BME280;27023;42.680;23.132;2022-07-06T02:00:23;92147.72;;;16.14;100.00
12195;BME280;27023;42.680;23.132;2022-07-06T02:02:50;92151.16;;;16.15;100.00
12195;BME280;27023;42.680;23.132;2022-07-06T02:05:16;92147.72;;;16.11;100.00
12195;BME280;27023;42.680;23.132;2022-07-06T02:07:43;92159.13;;;16.11;100.00
12195;BME280;27023;42.680;23.132;2022-07-06T02:10:10;92158.38;;;16.14;100.00
12195;BME280;27023;42.680;23.132;2022-07-06T02:12:38;92159.13;;;16.15;100.00
12195;BME280;27023;42.680;23.132;2022-07-06T02:15:06;92158.75;;;16.16;100.00
12195;BME280;27023;42.680;23.132;2022-07-06T02:17:32;92156.09;;;16.24;100.00
12195;BME280;27023;42.680;23.132;2022-07-06T02:19:59;92157.59;;;16.17;100.00
12195;BME280;27023;42.680;23.132;2022-07-06T02:22:26;92151.16;;;16.11;100.00
12195;BME280;27023;42.680;23.132;2022-07-06T02:24:52;92158.34;;;16.07;100.00
12195;BME280;27023;42.680;23.132;2022-07-06T02:27:19;92152.66;;;16.12;100.00
12195;BME280;27023;42.680;23.132;2022-07-06T02:29:47;92156.09;;;16.16;100.00
12195;BME280;27023;42.680;23.132;2022-07-06T02:32:14;92156.09;;;16.13;100.00
12195;BME280;27023;42.680;23.132;2022-07-06T02:34:41;92155.69;;;16.11;100.00
12195;BME280;27023;42.680;23.132;2022-07-06T02:37:07;92157.59;;;16.10;100.00
12195;BME280;27023;42.680;23.132;2022-07-06T02:39:34;92157.22;;;16.23;100.00
12195;BME280;27023;42.680;23.132;2022-07-06T02:42:01;92151.50;;;16.06;100.00
12195;BME280;27023;42.680;23.132;2022-07-06T02:44:27;92157.22;;;16.19;100.00
12195;BME280;27023;42.680;23.132;2022-07-06T02:46:56;92149.63;;;16.03;100.00
12195;BME280;27023;42.680;23.132;2022-07-06T02:49:22;92147.31;;;15.98;100.00
12195;BME280;27023;42.680;23.132;2022-07-06T02:51:49;92150.75;;;15.95;100.00
12195;BME280;27023;42.680;23.132;2022-07-06T02:54:16;92147.69;;;15.86;100.00
12195;BME280;27023;42.680;23.132;2022-07-06T02:56:42;92148.44;;;15.86;100.00
12195;BME280;27023;42.680;23.132;2022-07-06T02:59:10;92145.44;;;15.99;100.00
12195;BME280;27023;42.680;23.132;2022-07-06T03:01:36;92150.75;;;16.09;100.00
12195;BME280;27023;42.680;23.132;2022-07-06T03:04:04;92145.41;;;15.88;100.00
12195;BME280;27023;42.680;23.132;2022-07-06T03:06:31;92148.81;;;15.88;100.00
12195;BME280;27023;42.680;23.132;2022-07-06T03:08:58;92153.03;;;16.00;100.00
12195;BME280;27023;42.680;23.132;2022-07-06T03:11:26;92147.72;;;16.14;100.00
12195;BME280;27023;42.680;23.132;2022-07-06T03:13:52;92163.28;;;15.98;100.00
12195;BME280;27023;42.680;23.132;2022-07-06T03:16:19;92168.97;;;16.04;100.00
12195;BME280;27023;42.680;23.132;2022-07-06T03:18:46;92166.69;;;15.92;100.00
12195;BME280;27023;42.680;23.132;2022-07-06T03:21:14;92162.50;;;15.91;100.00
12195;BME280;27023;42.680;23.132;2022-07-06T03:23:40;92169.72;;;15.94;100.00
12195;BME280;27023;42.680;23.132;2022-07-06T03:26:07;92170.84;;;15.89;100.00
12195;BME280;27023;42.680;23.132;2022-07-06T03:28:34;92160.63;;;16.12;100.00
12195;BME280;27023;42.680;23.132;2022-07-06T03:31:00;92168.63;;;16.19;100.00
12195;BME280;27023;42.680;23.132;2022-07-06T03:33:27;92170.91;;;16.25;100.00
12195;BME280;27023;42.680;23.132;2022-07-06T03:35:54;92170.13;;;16.06;100.00
12195;BME280;27023;42.680;23.132;2022-07-06T03:38:22;92169.03;;;16.32;100.00
12195;BME280;27023;42.680;23.132;2022-07-06T03:40:48;92179.69;;;16.43;100.00
12195;BME280;27023;42.680;23.132;2022-07-06T03:43:15;92175.13;;;16.54;100.00
12195;BME280;27023;42.680;23.132;2022-07-06T03:45:42;92194.53;;;16.58;100.00
12195;BME280;27023;42.680;23.132;2022-07-06T03:48:09;92186.16;;;16.56;100.00
12195;BME280;27023;42.680;23.132;2022-07-06T03:50:36;92191.88;;;16.51;100.00
12195;BME280;27023;42.680;23.132;2022-07-06T03:53:03;92183.13;;;16.40;100.00
12195;BME280;27023;42.680;23.132;2022-07-06T03:55:31;92187.31;;;16.55;100.00
12195;BME280;27023;42.680;23.132;2022-07-06T03:57:58;92183.91;;;16.76;100.00
12195;BME280;27023;42.680;23.132;2022-07-06T04:00:24;92189.63;;;16.74;100.00
12195;BME280;27023;42.680;23.132;2022-07-06T04:02:51;92194.91;;;16.99;100.00
12195;BME280;27023;42.680;23.132;2022-07-06T04:05:18;92203.28;;;17.19;100.00
12195;BME280;27023;42.680;23.132;2022-07-06T04:07:49;92194.16;;;17.02;100.00
12195;BME280;27023;42.680;23.132;2022-07-06T04:10:16;92193.38;;;17.30;100.00
12195;BME280;27023;42.680;23.132;2022-07-06T04:12:45;92193.78;;;17.00;100.00
12195;BME280;27023;42.680;23.132;2022-07-06T04:15:12;92188.06;;;17.20;100.00
12195;BME280;27023;42.680;23.132;2022-07-06T04:17:39;92194.91;;;17.24;100.00
12195;BME280;27023;42.680;23.132;2022-07-06T04:20:18;92194.09;;;17.41;100.00
12195;BME280;27023;42.680;23.132;2022-07-06T04:22:45;92203.59;;;17.46;100.00
12195;BME280;27023;42.680;23.132;2022-07-06T04:25:12;92204.78;;;17.34;100.00
12195;BME280;27023;42.680;23.132;2022-07-06T04:27:39;92206.22;;;17.64;100.00
12195;BME280;27023;42.680;23.132;2022-07-06T04:30:09;92226.75;;;17.81;100.00
12195;BME280;27023;42.680;23.132;2022-07-06T04:32:36;92228.63;;;17.95;100.00
12195;BME280;27023;42.680;23.132;2022-07-06T04:35:03;92235.41;;;18.10;100.00
12195;BME280;27023;42.680;23.132;2022-07-06T04:37:31;92240.00;;;18.09;100.00
12195;BME280;27023;42.680;23.132;2022-07-06T04:39:58;92239.66;;;18.00;100.00
12195;BME280;27023;42.680;23.132;2022-07-06T04:42:24;92248.75;;;18.06;100.00
12195;BME280;27023;42.680;23.132;2022-07-06T04:44:51;92252.59;;;17.98;100.00
12195;BME280;27023;42.680;23.132;2022-07-06T04:47:19;92266.34;;;17.79;100.00
12195;BME280;27023;42.680;23.132;2022-07-06T04:49:46;92264.13;;;17.38;100.00
12195;BME280;27023;42.680;23.132;2022-07-06T04:52:12;92259.22;;;17.26;100.00
12195;BME280;27023;42.680;23.132;2022-07-06T04:54:39;92255.03;;;17.22;100.00
12195;BME280;27023;42.680;23.132;2022-07-06T04:57:06;92256.94;;;17.21;100.00
12195;BME280;27023;42.680;23.132;2022-07-06T04:59:32;92263.38;;;16.92;100.00
12195;BME280;27023;42.680;23.132;2022-07-06T05:01:59;92256.16;;;17.28;100.00
12195;BME280;27023;42.680;23.132;2022-07-06T05:04:27;92259.97;;;17.09;100.00
12195;BME280;27023;42.680;23.132;2022-07-06T05:06:54;92256.91;;;17.07;100.00
12195;BME280;27023;42.680;23.132;2022-07-06T05:09:20;92269.50;;;17.24;100.00
12195;BME280;27023;42.680;23.132;2022-07-06T05:11:47;92266.06;;;17.13;100.00
12195;BME280;27023;42.680;23.132;2022-07-06T05:14:14;92266.03;;;17.41;100.00
12195;BME280;27023;42.680;23.132;2022-07-06T05:16:40;92267.91;;;17.59;100.00
12195;BME280;27023;42.680;23.132;2022-07-06T05:19:07;92269.41;;;17.81;100.00
12195;BME280;27023;42.680;23.132;2022-07-06T05:21:35;92273.94;;;18.02;100.00
12195;BME280;27023;42.680;23.132;2022-07-06T05:24:02;92268.25;;;17.78;100.00
12195;BME280;27023;42.680;23.132;2022-07-06T05:26:29;92264.06;;;17.88;100.00
12195;BME280;27023;42.680;23.132;2022-07-06T05:28:56;92267.00;;;18.19;100.00
12195;BME280;27023;42.680;23.132;2022-07-06T05:31:22;92272.94;;;18.62;100.00
12195;BME280;27023;42.680;23.132;2022-07-06T05:33:49;92285.69;;;18.92;100.00
12195;BME280;27023;42.680;23.132;2022-07-06T05:36:16;92283.22;;;19.19;100.00
12195;BME280;27023;42.680;23.132;2022-07-06T05:38:44;92297.63;;;19.28;100.00
12195;BME280;27023;42.680;23.132;2022-07-06T05:41:11;92298.53;;;19.11;100.00
12195;BME280;27023;42.680;23.132;2022-07-06T05:43:38;92299.53;;;18.76;100.00
12195;BME280;27023;42.680;23.132;2022-07-06T05:46:05;92306.41;;;18.77;100.00
12195;BME280;27023;42.680;23.132;2022-07-06T05:48:31;92303.22;;;18.96;100.00
12195;BME280;27023;42.680;23.132;2022-07-06T05:51:15;92300.91;;;18.98;100.00
12195;BME280;27023;42.680;23.132;2022-07-06T05:53:42;92302.34;;;19.14;100.00
12195;BME280;27023;42.680;23.132;2022-07-06T05:56:10;92296.22;;;18.47;100.00
12195;BME280;27023;42.680;23.132;2022-07-06T05:58:37;92301.22;;;18.38;100.00
12195;BME280;27023;42.680;23.132;2022-07-06T06:01:04;92300.38;;;18.52;100.00
12195;BME280;27023;42.680;23.132;2022-07-06T06:03:32;92298.09;;;18.50;100.00
12195;BME280;27023;42.680;23.132;2022-07-06T06:05:59;92288.84;;;18.80;100.00
12195;BME280;27023;42.680;23.132;2022-07-06T06:08:25;92288.25;;;18.40;100.00
12195;BME280;27023;42.680;23.132;2022-07-06T06:10:52;92296.84;;;18.80;100.00
12195;BME280;27023;42.680;23.132;2022-07-06T06:13:20;92297.88;;;18.96;100.00
12195;BME280;27023;42.680;23.132;2022-07-06T06:15:47;92288.56;;;19.19;100.00
12195;BME280;27023;42.680;23.132;2022-07-06T06:18:14;92290.78;;;18.72;100.00
12195;BME280;27023;42.680;23.132;2022-07-06T06:20:43;92292.50;;;19.00;100.00
12195;BME280;27023;42.680;23.132;2022-07-06T06:23:09;92293.25;;;19.04;100.00
12195;BME280;27023;42.680;23.132;2022-07-06T06:25:37;92290.50;;;19.15;100.00
12195;BME280;27023;42.680;23.132;2022-07-06T06:28:06;92279.84;;;19.11;100.00
12195;BME280;27023;42.680;23.132;2022-07-06T06:30:34;92289.16;;;19.41;100.00
12195;BME280;27023;42.680;23.132;2022-07-06T06:33:08;92289.38;;;19.60;100.00
12195;BME280;27023;42.680;23.132;2022-07-06T06:35:36;92291.72;;;19.03;100.00
12195;BME280;27023;42.680;23.132;2022-07-06T06:38:03;92285.72;;;18.88;100.00
12195;BME280;27023;42.680;23.132;2022-07-06T06:40:29;92290.00;;;19.27;100.00
12195;BME280;27023;42.680;23.132;2022-07-06T06:42:56;92290.75;;;19.34;100.00
12195;BME280;27023;42.680;23.132;2022-07-06T06:45:23;92297.47;;;19.53;100.00
12195;BME280;27023;42.680;23.132;2022-07-06T06:47:51;92298.59;;;19.56;100.00
12195;BME280;27023;42.680;23.132;2022-07-06T06:50:18;92293.22;;;19.59;100.00
12195;BME280;27023;42.680;23.132;2022-07-06T06:52:44;92287.34;;;19.75;100.00
12195;BME280;27023;42.680;23.132;2022-07-06T06:55:11;92285.16;;;19.63;100.00
12195;BME280;27023;42.680;23.132;2022-07-06T06:57:38;92286.91;;;19.80;100.00
12195;BME280;27023;42.680;23.132;2022-07-06T07:00:06;92284.44;;;19.96;100.00
12195;BME280;27023;42.680;23.132;2022-07-06T07:02:33;92290.50;;;20.00;100.00
12195;BME280;27023;42.680;23.132;2022-07-06T07:05:01;92285.38;;;20.17;100.00
12195;BME280;27023;42.680;23.132;2022-07-06T07:07:28;92286.91;;;20.18;100.00
12195;BME280;27023;42.680;23.132;2022-07-06T07:09:55;92290.81;;;20.10;100.00
12195;BME280;27023;42.680;23.132;2022-07-06T07:12:21;92285.38;;;20.17;100.00
12195;BME280;27023;42.680;23.132;2022-07-06T07:14:48;92286.97;;;20.11;100.00
12195;BME280;27023;42.680;23.132;2022-07-06T07:17:15;92280.13;;;20.10;100.00
12195;BME280;27023;42.680;23.132;2022-07-06T07:19:42;92287.69;;;20.15;100.00
12195;BME280;27023;42.680;23.132;2022-07-06T07:22:10;92282.38;;;20.11;100.00
12195;BME280;27023;42.680;23.132;2022-07-06T07:24:36;92276.25;;;20.14;100.00
12195;BME280;27023;42.680;23.132;2022-07-06T07:27:03;92277.72;;;20.19;100.00
12195;BME280;27023;42.680;23.132;2022-07-06T07:29:31;92280.22;;;20.33;100.00
12195;BME280;27023;42.680;23.132;2022-07-06T07:31:57;92282.84;;;20.40;100.00
12195;BME280;27023;42.680;23.132;2022-07-06T07:34:24;92280.50;;;20.42;100.00
12195;BME280;27023;42.680;23.132;2022-07-06T07:36:51;92283.34;;;20.28;100.00
12195;BME280;27023;42.680;23.132;2022-07-06T07:39:19;92289.03;;;20.30;100.00
12195;BME280;27023;42.680;23.132;2022-07-06T07:41:45;92276.06;;;20.28;100.00
12195;BME280;27023;42.680;23.132;2022-07-06T07:44:12;92284.69;;;20.09;100.00
12195;BME280;27023;42.680;23.132;2022-07-06T07:46:39;92276.19;;;20.18;100.00
12195;BME280;27023;42.680;23.132;2022-07-06T07:49:05;92282.88;;;20.33;100.00
12195;BME280;27023;42.680;23.132;2022-07-06T07:51:33;92282.78;;;20.44;100.00
12195;BME280;27023;42.680;23.132;2022-07-06T07:53:59;92283.50;;;20.48;100.00
12195;BME280;27023;42.680;23.132;2022-07-06T07:56:27;92289.72;;;20.04;100.00
12195;BME280;27023;42.680;23.132;2022-07-06T07:58:54;92291.56;;;20.10;100.00
12195;BME280;27023;42.680;23.132;2022-07-06T08:01:21;92286.09;;;20.21;100.00
12195;BME280;27023;42.680;23.132;2022-07-06T08:03:47;92293.88;;;20.08;100.00
12195;BME280;27023;42.680;23.132;2022-07-06T08:06:14;92289.88;;;19.89;100.00
12195;BME280;27023;42.680;23.132;2022-07-06T08:08:41;92290.31;;;19.84;100.00
12195;BME280;27023;42.680;23.132;2022-07-06T08:11:07;92294.25;;;20.10;100.00
12195;BME280;27023;42.680;23.132;2022-07-06T08:13:36;92290.97;;;19.92;100.00
12195;BME280;27023;42.680;23.132;2022-07-06T08:16:03;92288.47;;;20.15;100.00
12195;BME280;27023;42.680;23.132;2022-07-06T08:18:30;92295.56;;;20.29;100.00
12195;BME280;27023;42.680;23.132;2022-07-06T08:20:57;92285.63;;;20.29;100.00
12195;BME280;27023;42.680;23.132;2022-07-06T08:23:24;92286.66;;;20.39;100.00
12195;BME280;27023;42.680;23.132;2022-07-06T08:25:50;92292.31;;;20.75;100.00
12195;BME280;27023;42.680;23.132;2022-07-06T08:28:17;92285.06;;;21.03;100.00
12195;BME280;27023;42.680;23.132;2022-07-06T08:30:45;92286.63;;;21.00;100.00
12195;BME280;27023;42.680;23.132;2022-07-06T08:33:12;92287.63;;;21.10;100.00
12195;BME280;27023;42.680;23.132;2022-07-06T08:35:39;92292.19;;;21.13;100.00
12195;BME280;27023;42.680;23.132;2022-07-06T08:38:06;92293.34;;;20.85;100.00
12195;BME280;27023;42.680;23.132;2022-07-06T08:40:34;92298.75;;;21.08;100.00
12195;BME280;27023;42.680;23.132;2022-07-06T08:43:01;92302.09;;;20.89;100.00
12195;BME280;27023;42.680;23.132;2022-07-06T08:45:29;92304.53;;;21.34;100.00
12195;BME280;27023;42.680;23.132;2022-07-06T08:47:59;92298.97;;;21.44;100.00
12195;BME280;27023;42.680;23.132;2022-07-06T08:50:29;92311.69;;;21.40;100.00
12195;BME280;27023;42.680;23.132;2022-07-06T08:52:57;92310.47;;;21.45;100.00
12195;BME280;27023;42.680;23.132;2022-07-06T08:55:24;92313.88;;;21.72;100.00
12195;BME280;27023;42.680;23.132;2022-07-06T08:57:51;92319.75;;;21.87;100.00
12195;BME280;27023;42.680;23.132;2022-07-06T09:00:20;92310.03;;;21.23;100.00
12195;BME280;27023;42.680;23.132;2022-07-06T09:02:48;92316.66;;;21.42;100.00
12195;BME280;27023;42.680;23.132;2022-07-06T09:05:17;92321.44;;;21.77;100.00
12195;BME280;27023;42.680;23.132;2022-07-06T09:07:45;92316.38;;;20.79;100.00
12195;BME280;27023;42.680;23.132;2022-07-06T09:10:17;92307.63;;;20.75;100.00
12195;BME280;27023;42.680;23.132;2022-07-06T09:12:44;92295.31;;;21.35;100.00
12195;BME280;27023;42.680;23.132;2022-07-06T09:15:10;92302.06;;;22.13;100.00
12195;BME280;27023;42.680;23.132;2022-07-06T09:17:38;92306.50;;;21.53;100.00
12195;BME280;27023;42.680;23.132;2022-07-06T09:20:07;92309.06;;;21.37;100.00
12195;BME280;27023;42.680;23.132;2022-07-06T09:22:35;92317.03;;;21.67;100.00
12195;BME280;27023;42.680;23.132;2022-07-06T09:25:04;92314.59;;;21.49;100.00
12195;BME280;27023;42.680;23.132;2022-07-06T09:27:31;92318.13;;;20.62;100.00
12195;BME280;27023;42.680;23.132;2022-07-06T09:30:00;92312.50;;;21.10;100.00
12195;BME280;27023;42.680;23.132;2022-07-06T09:32:27;92306.03;;;20.81;100.00
12195;BME280;27023;42.680;23.132;2022-07-06T09:34:54;92308.81;;;21.28;100.00
12195;BME280;27023;42.680;23.132;2022-07-06T09:37:22;92296.00;;;21.85;100.00
12195;BME280;27023;42.680;23.132;2022-07-06T09:39:50;92311.06;;;21.56;100.00
12195;BME280;27023;42.680;23.132;2022-07-06T09:42:23;92305.50;;;22.13;100.00
12195;BME280;27023;42.680;23.132;2022-07-06T09:44:50;92303.63;;;22.10;100.00
12195;BME280;27023;42.680;23.132;2022-07-06T09:47:17;92306.25;;;21.91;100.00
12195;BME280;27023;42.680;23.132;2022-07-06T09:49:45;92291.97;;;22.40;100.00
12195;BME280;27023;42.680;23.132;2022-07-06T09:52:13;92294.16;;;22.02;100.00
12195;BME280;27023;42.680;23.132;2022-07-06T09:54:40;92297.81;;;21.92;100.00
12195;BME280;27023;42.680;23.132;2022-07-06T09:57:08;92296.56;;;21.97;100.00
12195;BME280;27023;42.680;23.132;2022-07-06T09:59:35;92290.66;;;23.69;100.00
12195;BME280;27023;42.680;23.132;2022-07-06T10:02:04;92294.59;;;26.08;95.23
12195;BME280;27023;42.680;23.132;2022-07-06T10:04:32;92301.84;;;24.29;98.65
12195;BME280;27023;42.680;23.132;2022-07-06T10:06:59;92301.75;;;26.02;86.01
12195;BME280;27023;42.680;23.132;2022-07-06T10:09:28;92268.06;;;27.92;70.71
12195;BME280;27023;42.680;23.132;2022-07-06T10:11:58;92264.81;;;26.86;70.94
12195;BME280;27023;42.680;23.132;2022-07-06T10:14:28;92271.91;;;24.69;88.89
12195;BME280;27023;42.680;23.132;2022-07-06T10:16:55;92264.69;;;26.02;83.22
12195;BME280;27023;42.680;23.132;2022-07-06T10:19:22;92250.31;;;26.71;74.75
12195;BME280;27023;42.680;23.132;2022-07-06T10:21:50;92249.50;;;30.67;57.45
12195;BME280;27023;42.680;23.132;2022-07-06T10:24:18;92244.50;;;31.10;56.20
12195;BME280;27023;42.680;23.132;2022-07-06T10:26:46;92240.47;;;33.35;44.11
12195;BME280;27023;42.680;23.132;2022-07-06T10:29:14;92239.44;;;31.33;48.77
12195;BME280;27023;42.680;23.132;2022-07-06T10:31:44;92246.69;;;28.12;59.43
12195;BME280;27023;42.680;23.132;2022-07-06T10:34:14;92243.06;;;27.30;62.34
12195;BME280;27023;42.680;23.132;2022-07-06T10:36:42;92248.81;;;27.41;63.42
12195;BME280;27023;42.680;23.132;2022-07-06T10:39:10;92249.47;;;24.72;79.08
12195;BME280;27023;42.680;23.132;2022-07-06T10:41:55;92251.84;;;24.70;77.90
12195;BME280;27023;42.680;23.132;2022-07-06T10:44:24;92250.44;;;24.91;74.67
12195;BME280;27023;42.680;23.132;2022-07-06T10:46:54;92253.38;;;25.22;80.03
12195;BME280;27023;42.680;23.132;2022-07-06T10:49:21;92250.06;;;25.30;75.92
12195;BME280;27023;42.680;23.132;2022-07-06T10:51:48;92246.34;;;24.74;74.55
12195;BME280;27023;42.680;23.132;2022-07-06T10:54:17;92254.59;;;23.67;81.02
12195;BME280;27023;42.680;23.132;2022-07-06T10:56:45;92250.63;;;23.71;80.88
12195;BME280;27023;42.680;23.132;2022-07-06T10:59:13;92252.56;;;23.87;79.18
12195;BME280;27023;42.680;23.132;2022-07-06T11:01:41;92244.91;;;23.86;81.14
12195;BME280;27023;42.680;23.132;2022-07-06T11:04:32;92250.66;;;24.00;79.81
12195;BME280;27023;42.680;23.132;2022-07-06T11:07:07;92246.38;;;23.25;85.93
12195;BME280;27023;42.680;23.132;2022-07-06T11:09:35;92247.22;;;23.38;89.10
12195;BME280;27023;42.680;23.132;2022-07-06T11:12:12;92254.69;;;23.63;85.57
12195;BME280;27023;42.680;23.132;2022-07-06T11:14:39;92251.31;;;22.94;89.77
12195;BME280;27023;42.680;23.132;2022-07-06T11:17:09;92246.63;;;23.14;84.35
12195;BME280;27023;42.680;23.132;2022-07-06T11:19:48;92247.63;;;23.37;82.28
12195;BME280;27023;42.680;23.132;2022-07-06T11:22:15;92244.09;;;23.40;82.67
12195;BME280;27023;42.680;23.132;2022-07-06T11:24:42;92252.75;;;22.79;90.54
12195;BME280;27023;42.680;23.132;2022-07-06T11:27:09;92241.91;;;22.66;86.08
12195;BME280;27023;42.680;23.132;2022-07-06T11:29:36;92245.44;;;22.99;87.95
12195;BME280;27023;42.680;23.132;2022-07-06T11:32:05;92240.06;;;23.32;85.78
12195;BME280;27023;42.680;23.132;2022-07-06T11:34:35;92239.56;;;23.21;82.92
12195;BME280;27023;42.680;23.132;2022-07-06T11:37:05;92241.47;;;23.53;83.88
12195;BME280;27023;42.680;23.132;2022-07-06T11:39:35;92231.28;;;23.76;80.50
12195;BME280;27023;42.680;23.132;2022-07-06T11:44:30;92225.69;;;24.00;81.30
12195;BME280;27023;42.680;23.132;2022-07-06T11:46:57;92222.22;;;23.70;81.40
12195;BME280;27023;42.680;23.132;2022-07-06T11:49:26;92210.59;;;23.73;83.09
12195;BME280;27023;42.680;23.132;2022-07-06T11:51:53;92222.59;;;23.56;82.89
12195;BME280;27023;42.680;23.132;2022-07-06T11:54:22;92224.38;;;23.14;87.12
12195;BME280;27023;42.680;23.132;2022-07-06T11:56:50;92225.09;;;22.82;90.90
12195;BME280;27023;42.680;23.132;2022-07-06T11:59:20;92212.16;;;23.42;81.85
12195;BME280;27023;42.680;23.132;2022-07-06T12:01:48;92207.34;;;23.82;80.68
12195;BME280;27023;42.680;23.132;2022-07-06T12:04:14;92210.63;;;24.02;75.60
12195;BME280;27023;42.680;23.132;2022-07-06T12:06:43;92224.66;;;23.49;74.88
12195;BME280;27023;42.680;23.132;2022-07-06T12:09:10;92213.63;;;22.62;83.77
12195;BME280;27023;42.680;23.132;2022-07-06T12:11:39;92205.56;;;22.62;83.98
12195;BME280;27023;42.680;23.132;2022-07-06T12:14:13;92208.25;;;22.06;89.69
12195;BME280;27023;42.680;23.132;2022-07-06T12:16:40;92210.09;;;22.29;89.96
12195;BME280;27023;42.680;23.132;2022-07-06T12:19:07;92208.75;;;22.57;86.67
12195;BME280;27023;42.680;23.132;2022-07-06T12:21:42;92214.78;;;22.61;82.01
12195;BME280;27023;42.680;23.132;2022-07-06T12:24:09;92218.28;;;22.41;78.55
12195;BME280;27023;42.680;23.132;2022-07-06T12:26:40;92212.06;;;22.80;79.47
12195;BME280;27023;42.680;23.132;2022-07-06T12:29:08;92215.16;;;22.79;82.29
12195;BME280;27023;42.680;23.132;2022-07-06T12:31:36;92214.63;;;22.68;87.96
12195;BME280;27023;42.680;23.132;2022-07-06T12:34:04;92214.34;;;22.26;86.29
12195;BME280;27023;42.680;23.132;2022-07-06T12:36:31;92208.09;;;22.33;90.17
12195;BME280;27023;42.680;23.132;2022-07-06T12:39:10;92205.13;;;22.27;88.01
12195;BME280;27023;42.680;23.132;2022-07-06T12:41:37;92209.50;;;22.57;89.63
12195;BME280;27023;42.680;23.132;2022-07-06T12:44:07;92203.38;;;22.57;80.88
12195;BME280;27023;42.680;23.132;2022-07-06T12:46:35;92195.66;;;22.59;80.72
12195;BME280;27023;42.680;23.132;2022-07-06T12:49:10;92200.78;;;22.69;79.15